Time;durP1;ratioP1;P1;durP2;ratioP2;P2;SDS_P1;SDS_P2;PMS_P1;PMS_P2;Temp;Humidity;BMP_temperature;BMP_pressure;BME280_temperature;BME280_humidity;BME280_pressure;Samples;Min_cycle;Max_cycle;Signal;HPM_P1;HPM_P2
2022/07/19 00:02:13;;;;;;;;;;;;;;;17.94;53.33;101861.67;1687102;85;29623;-59
2022/07/19 00:04:40;;;;;;;;;;;;;;;17.96;53.80;101862.41;1686989;85;26115;-59
2022/07/19 00:07:06;;;;;;;;;;;;;;;17.92;54.10;101860.48;1687275;83;25785;-59
2022/07/19 00:09:33;;;;;;;;;;;;;;;17.86;53.91;101857.53;1687382;85;25805;-60
2022/07/19 00:11:59;;;;;;;;;;;;;;;17.84;53.55;101854.94;1687539;85;25718;-59
2022/07/19 00:14:26;;;;;;;;;;;;;;;17.83;52.63;101860.06;1687468;85;27408;-59
2022/07/19 00:16:53;;;;;;;;;;;;;;;17.85;52.64;101864.82;1687569;85;25722;-60
2022/07/19 00:19:19;;;;;;;;;;;;;;;17.86;52.06;101858.89;1687479;85;25457;-59
2022/07/19 00:21:46;;;;;;;;;;;;;;;17.89;51.82;101859.42;1689164;84;26226;-60
2022/07/19 00:24:13;;;;;;;;;;;;;;;17.89;51.25;101862.14;1689841;85;25769;-59
2022/07/19 00:26:40;;;;;;;;;;;;;;;17.91;50.64;101861.98;1689769;85;27570;-60
2022/07/19 00:29:07;;;;;;;;;;;;;;;17.92;50.74;101860.48;1689268;85;25834;-59
2022/07/19 00:31:34;;;;;;;;;;;;;;;17.96;50.49;101859.69;1689955;85;25452;-59
2022/07/19 00:34:00;;;;;;;;;;;;;;;17.97;50.49;101862.24;1689782;85;25915;-59
2022/07/19 00:36:27;;;;;;;;;;;;;;;18.01;50.44;101868.73;1689948;85;25595;-59
2022/07/19 00:38:53;;;;;;;;;;;;;;;18.01;50.07;101862.77;1694284;83;27617;-60
2022/07/19 00:41:20;;;;;;;;;;;;;;;18.02;49.96;101863.65;1702224;84;25766;-60
2022/07/19 00:43:50;;;;;;;;;;;;;;;18.02;49.69;101855.48;1702460;84;25726;-60
2022/07/19 00:46:19;;;;;;;;;;;;;;;18.05;49.60;101857.37;1696859;83;25770;-60
2022/07/19 00:48:47;;;;;;;;;;;;;;;18.07;49.45;101860.77;1689671;85;25690;-59
2022/07/19 00:51:15;;;;;;;;;;;;;;;18.07;49.74;101856.68;1690079;85;27422;-60
2022/07/19 00:53:43;;;;;;;;;;;;;;;18.05;49.43;101852.41;1689531;85;25769;-60
2022/07/19 00:56:11;;;;;;;;;;;;;;;18.04;49.44;101853.42;1689885;83;25520;-59
2022/07/19 00:58:39;;;;;;;;;;;;;;;18.02;49.62;101850.03;1689778;84;25693;-59
2022/07/19 01:01:07;;;;;;;;;;;;;;;17.99;49.66;101852.54;1697220;84;25453;-59
2022/07/19 01:03:36;;;;;;;;;;;;;;;17.99;49.65;101846.61;1701953;84;28403;-61
2022/07/19 01:06:04;;;;;;;;;;;;;;;17.98;49.51;101848.98;1702159;84;25809;-60
2022/07/19 01:08:30;;;;;;;;;;;;;;;17.98;49.52;101845.38;1702123;84;25753;-60
2022/07/19 01:10:57;;;;;;;;;;;;;;;17.99;49.46;101846.61;1702693;84;25679;-59
2022/07/19 01:13:24;;;;;;;;;;;;;;;17.98;49.71;101846.25;1702236;84;25636;-60
2022/07/19 01:15:51;;;;;;;;;;;;;;;17.98;49.76;101847.62;1702360;84;27473;-59
2022/07/19 01:18:18;;;;;;;;;;;;;;;17.99;49.87;101843.89;1702095;84;25782;-59
2022/07/19 01:20:44;;;;;;;;;;;;;;;17.99;50.12;101849.33;1701919;83;25690;-59
2022/07/19 01:23:11;;;;;;;;;;;;;;;17.98;50.12;101842.17;1700060;84;26300;-59
2022/07/19 01:25:38;;;;;;;;;;;;;;;17.97;50.08;101839.63;1700034;84;25505;-59
2022/07/19 01:28:07;;;;;;;;;;;;;;;17.98;50.20;101839.94;1700092;84;28195;-59
2022/07/19 01:30:34;;;;;;;;;;;;;;;17.99;50.07;101835.72;1700010;83;25814;-60
2022/07/19 01:33:01;;;;;;;;;;;;;;;17.98;50.11;101835.37;1699981;84;25657;-59
2022/07/19 01:35:28;;;;;;;;;;;;;;;17.99;50.35;101833.00;1700007;84;25719;-60
2022/07/19 01:37:55;;;;;;;;;;;;;;;17.98;50.75;101830.41;1700136;84;25560;-59
2022/07/19 01:40:25;;;;;;;;;;;;;;;17.93;50.71;101830.02;1684766;84;27495;-59
2022/07/19 01:42:52;;;;;;;;;;;;;;;17.92;50.66;101827.81;1684330;85;25747;-58
2022/07/19 01:45:19;;;;;;;;;;;;;;;17.91;50.66;101835.62;1685478;84;25750;-61
2022/07/19 01:47:46;;;;;;;;;;;;;;;17.91;50.75;101834.76;1699979;84;25707;-59
2022/07/19 01:50:14;;;;;;;;;;;;;;;17.87;50.73;101831.50;1699965;84;25600;-59
2022/07/19 01:52:41;;;;;;;;;;;;;;;17.83;50.90;101832.84;1700023;83;27484;-59
2022/07/19 01:55:08;;;;;;;;;;;;;;;17.83;50.77;101832.84;1700005;84;25693;-59
2022/07/19 01:57:35;;;;;;;;;;;;;;;17.81;50.98;101830.78;1699870;83;25667;-59
2022/07/19 02:00:04;;;;;;;;;;;;;;;17.81;51.21;101827.55;1698947;84;26242;-59
2022/07/19 02:02:32;;;;;;;;;;;;;;;17.81;51.17;101826.70;1691903;83;25804;-59
2022/07/19 02:04:59;;;;;;;;;;;;;;;17.81;51.49;101830.27;1692147;84;27496;-59
2022/07/19 02:07:26;;;;;;;;;;;;;;;17.81;51.53;101833.50;1692214;84;25784;-60
2022/07/19 02:09:52;;;;;;;;;;;;;;;17.80;51.55;101829.91;1692336;84;25516;-60
2022/07/19 02:12:19;;;;;;;;;;;;;;;17.79;51.50;101831.44;1692223;84;25746;-60
2022/07/19 02:14:45;;;;;;;;;;;;;;;17.75;52.04;101832.27;1692193;84;25799;-59
2022/07/19 02:17:12;;;;;;;;;;;;;;;17.71;52.41;101839.02;1692153;84;27503;-61
2022/07/19 02:19:38;;;;;;;;;;;;;;;17.68;52.65;101836.63;1691779;84;25694;-60
2022/07/19 02:22:04;;;;;;;;;;;;;;;17.62;52.69;101835.88;1692195;83;26002;-59
2022/07/19 02:24:31;;;;;;;;;;;;;;;17.58;52.72;101837.22;1692146;83;25542;-60
2022/07/19 02:26:58;;;;;;;;;;;;;;;17.55;52.92;101838.39;1692144;84;25745;-60
2022/07/19 02:29:25;;;;;;;;;;;;;;;17.49;52.94;101841.72;1692137;84;27499;-59
2022/07/19 02:31:51;;;;;;;;;;;;;;;17.45;53.16;101840.34;1692325;83;25695;-60
2022/07/19 02:34:18;;;;;;;;;;;;;;;17.43;53.11;101835.06;1692167;84;25801;-60
2022/07/19 02:36:44;;;;;;;;;;;;;;;17.43;53.25;101841.86;1692033;84;26376;-59
2022/07/19 02:39:11;;;;;;;;;;;;;;;17.43;53.05;101839.14;1693824;84;25748;-59
2022/07/19 02:41:37;;;;;;;;;;;;;;;17.42;53.00;101845.59;1695779;83;27978;-60
2022/07/19 02:44:04;;;;;;;;;;;;;;;17.41;53.20;101847.95;1695304;83;25695;-60
2022/07/19 02:46:33;;;;;;;;;;;;;;;17.38;53.16;101848.25;1693924;84;25698;-60
2022/07/19 02:48:59;;;;;;;;;;;;;;;17.37;53.30;101850.63;1692240;84;26297;-59
2022/07/19 02:51:26;;;;;;;;;;;;;;;17.39;53.19;101846.41;1692109;84;25675;-60
2022/07/19 02:53:52;;;;;;;;;;;;;;;17.38;53.69;101842.81;1692326;84;27508;-60
2022/07/19 02:56:19;;;;;;;;;;;;;;;17.38;53.24;101844.17;1692075;84;25682;-59
2022/07/19 02:58:45;;;;;;;;;;;;;;;17.38;53.29;101849.61;1692087;83;25854;-60
2022/07/19 03:01:12;;;;;;;;;;;;;;;17.34;53.43;101844.99;1694117;83;26263;-61
2022/07/19 03:03:45;;;;;;;;;;;;;;;17.33;53.44;101847.36;1695363;84;25770;-61
2022/07/19 03:06:17;;;;;;;;;;;;;;;17.30;54.03;101842.73;1695443;83;29578;-59
2022/07/19 03:08:44;;;;;;;;;;;;;;;17.29;54.12;101845.97;1695545;84;25787;-60
2022/07/19 03:11:11;;;;;;;;;;;;;;;17.28;53.78;101842.03;1695254;84;25710;-60
2022/07/19 03:13:38;;;;;;;;;;;;;;;17.29;53.74;101848.70;1695467;83;25810;-60
2022/07/19 03:16:06;;;;;;;;;;;;;;;17.34;53.74;101846.87;1695595;83;25818;-61
2022/07/19 03:18:32;;;;;;;;;;;;;;;17.37;53.65;101843.82;1695520;84;27651;-59
2022/07/19 03:21:00;;;;;;;;;;;;;;;17.40;53.53;101844.02;1695290;84;27239;-59
2022/07/19 03:23:27;;;;;;;;;;;;;;;17.42;54.00;101838.79;1707778;84;25715;-59
2022/07/19 03:25:54;;;;;;;;;;;;;;;17.43;54.06;101841.86;1707734;84;26436;-59
2022/07/19 03:28:20;;;;;;;;;;;;;;;17.43;54.52;101844.58;1707578;83;25466;-59
2022/07/19 03:30:47;;;;;;;;;;;;;;;17.42;54.27;101838.79;1707691;83;27490;-60
2022/07/19 03:33:15;;;;;;;;;;;;;;;17.44;54.14;101846.27;1707657;83;25619;-59
2022/07/19 03:35:44;;;;;;;;;;;;;;;17.44;54.59;101848.14;1707612;83;25734;-59
2022/07/19 03:38:11;;;;;;;;;;;;;;;17.41;54.68;101848.44;1707115;84;25757;-59
2022/07/19 03:40:39;;;;;;;;;;;;;;;17.40;54.56;101850.32;1699616;83;25716;-60
2022/07/19 03:43:06;;;;;;;;;;;;;;;17.41;54.47;101850.67;1699512;84;27498;-60
2022/07/19 03:45:34;;;;;;;;;;;;;;;17.40;54.60;101844.02;1700798;83;25792;-59
2022/07/19 03:48:01;;;;;;;;;;;;;;;17.35;54.66;101846.70;1707959;83;25686;-59
2022/07/19 03:50:28;;;;;;;;;;;;;;;17.34;54.97;101849.59;1707829;84;25699;-59
2022/07/19 03:52:54;;;;;;;;;;;;;;;17.31;54.89;101849.89;1707998;83;25799;-59
2022/07/19 03:55:21;;;;;;;;;;;;;;;17.31;54.87;101845.81;1708009;83;26992;-59
2022/07/19 03:57:47;;;;;;;;;;;;;;;17.33;55.16;101850.08;1707945;83;25798;-59
2022/07/19 04:00:14;;;;;;;;;;;;;;;17.35;54.88;101846.70;1705321;83;25454;-59
2022/07/19 04:02:42;;;;;;;;;;;;;;;17.36;54.86;101849.78;1695473;84;25598;-57
2022/07/19 04:05:11;;;;;;;;;;;;;;;17.37;55.42;101846.55;1695212;83;25782;-59
2022/07/19 04:07:38;;;;;;;;;;;;;;;17.34;55.10;101847.71;1695250;84;27536;-60
2022/07/19 04:10:08;;;;;;;;;;;;;;;17.35;54.88;101848.06;1694324;84;25697;-59
2022/07/19 04:12:35;;;;;;;;;;;;;;;17.36;54.88;101846.19;1695149;83;25652;-58
2022/07/19 04:15:02;;;;;;;;;;;;;;;17.39;54.70;101845.05;1694800;84;25862;-59
2022/07/19 04:17:29;;;;;;;;;;;;;;;17.39;54.55;101845.05;1695204;84;25771;-59
2022/07/19 04:19:55;;;;;;;;;;;;;;;17.41;54.33;101847.95;1695710;83;27616;-59
2022/07/19 04:22:23;;;;;;;;;;;;;;;17.44;54.51;101840.83;1692361;83;25792;-60
2022/07/19 04:24:51;;;;;;;;;;;;;;;17.46;54.57;101851.05;1689669;85;25729;-59
2022/07/19 04:27:18;;;;;;;;;;;;;;;17.50;55.00;101850.23;1689738;83;26687;-59
2022/07/19 04:29:45;;;;;;;;;;;;;;;17.50;55.83;101846.16;1689410;85;26414;-59
2022/07/19 04:32:11;;;;;;;;;;;;;;;17.49;55.60;101844.44;1689667;85;27461;-59
2022/07/19 04:34:38;;;;;;;;;;;;;;;17.53;55.48;101845.85;1689488;85;25756;-59
2022/07/19 04:37:05;;;;;;;;;;;;;;;17.58;55.16;101845.38;1689868;85;25958;-59
2022/07/19 04:39:32;;;;;;;;;;;;;;;17.64;55.11;101846.11;1697519;84;25803;-59
2022/07/19 04:41:59;;;;;;;;;;;;;;;17.68;55.17;101844.28;1702306;84;25682;-59
2022/07/19 04:44:26;;;;;;;;;;;;;;;17.72;55.03;101839.38;1702190;84;27482;-60
2022/07/19 04:46:52;;;;;;;;;;;;;;;17.75;54.53;101839.06;1691762;84;25675;-58
2022/07/19 04:49:19;;;;;;;;;;;;;;;17.82;54.48;101844.74;1686987;85;25765;-58
2022/07/19 04:51:46;;;;;;;;;;;;;;;17.90;53.53;101847.53;1687295;83;25814;-59
2022/07/19 04:54:12;;;;;;;;;;;;;;;17.97;52.15;101844.55;1687391;85;25710;-60
2022/07/19 04:56:40;;;;;;;;;;;;;;;18.08;51.35;101837.97;1687292;85;27498;-60
2022/07/19 04:59:07;;;;;;;;;;;;;;;18.21;51.02;101845.72;1687134;84;25551;-60
2022/07/19 05:01:34;;;;;;;;;;;;;;;18.33;50.52;101844.09;1698862;84;25766;-60
2022/07/19 05:04:01;;;;;;;;;;;;;;;18.43;49.59;101839.38;1702325;84;26311;-59
2022/07/19 05:06:27;;;;;;;;;;;;;;;18.53;48.97;101840.13;1702261;84;25744;-59
2022/07/19 05:08:56;;;;;;;;;;;;;;;18.63;48.78;101840.51;1702351;84;28438;-59
2022/07/19 05:11:22;;;;;;;;;;;;;;;18.70;48.32;101838.30;1701943;83;25714;-59
2022/07/19 05:13:49;;;;;;;;;;;;;;;18.79;48.37;101840.56;1701428;84;25489;-59
2022/07/19 05:16:18;;;;;;;;;;;;;;;18.86;47.36;101840.25;1707582;83;25909;-59
2022/07/19 05:18:45;;;;;;;;;;;;;;;18.94;47.20;101843.55;1707431;84;25705;-58
2022/07/19 05:21:12;;;;;;;;;;;;;;;19.04;46.88;101839.31;1707403;84;27541;-59
2022/07/19 05:23:41;;;;;;;;;;;;;;;19.11;46.83;101840.88;1715796;83;25912;-58
2022/07/19 05:26:08;;;;;;;;;;;;;;;19.18;46.87;101842.78;1717781;82;25713;-58
2022/07/19 05:28:35;;;;;;;;;;;;;;;19.25;46.74;101841.57;1717527;83;25804;-60
2022/07/19 05:31:04;;;;;;;;;;;;;;;19.36;45.44;101839.05;1717792;82;25765;-59
2022/07/19 05:33:31;;;;;;;;;;;;;;;19.42;45.62;101844.32;1717875;83;28278;-60
2022/07/19 05:35:58;;;;;;;;;;;;;;;19.47;45.11;101841.43;1717641;83;25783;-59
2022/07/19 05:38:24;;;;;;;;;;;;;;;19.53;45.35;101844.00;1714762;83;25848;-59
2022/07/19 05:40:54;;;;;;;;;;;;;;;19.58;44.85;101834.81;1699833;84;25946;-59
2022/07/19 05:43:20;;;;;;;;;;;;;;;19.64;44.78;101837.34;1700164;84;25797;-60
2022/07/19 05:45:47;;;;;;;;;;;;;;;19.67;45.14;101840.61;1696814;84;28386;-60
2022/07/19 05:48:13;;;;;;;;;;;;;;;19.70;45.26;101838.89;1687254;83;27301;-59
2022/07/19 05:50:40;;;;;;;;;;;;;;;19.73;45.00;101838.20;1687244;85;25772;-61
2022/07/19 05:53:07;;;;;;;;;;;;;;;19.79;45.02;101841.12;1687182;85;26619;-60
2022/07/19 06:05:01;;;;;;;;;;;;;;;20.00;42.45;101841.98;1698168;83;25794;-59
2022/07/19 06:07:29;;;;;;;;;;;;;;;20.06;43.01;101839.08;1699806;84;25972;-59
2022/07/19 06:09:55;;;;;;;;;;;;;;;20.11;42.83;101840.77;1700102;84;25785;-60
2022/07/19 06:12:21;;;;;;;;;;;;;;;20.16;42.71;101833.41;1699736;84;27465;-59
2022/07/19 06:14:48;;;;;;;;;;;;;;;20.22;42.41;101836.80;1699646;84;25671;-59
2022/07/19 06:17:15;;;;;;;;;;;;;;;20.28;41.46;101836.13;1699996;84;25790;-59
2022/07/19 06:19:41;;;;;;;;;;;;;;;20.36;41.82;101839.33;1699939;84;26505;-59
2022/07/19 06:22:08;;;;;;;;;;;;;;;20.44;42.15;101841.20;1699757;84;25709;-60
2022/07/19 06:24:35;;;;;;;;;;;;;;;20.52;42.10;101848.53;1699672;84;27663;-60
2022/07/19 06:27:01;;;;;;;;;;;;;;;20.59;41.55;101842.16;1700059;83;25746;-59
2022/07/19 06:29:28;;;;;;;;;;;;;;;20.66;41.28;101841.47;1699780;84;25878;-60
2022/07/19 06:31:54;;;;;;;;;;;;;;;20.75;41.47;101833.08;1699854;84;25808;-59
2022/07/19 06:34:21;;;;;;;;;;;;;;;20.86;41.14;101840.55;1699934;84;25745;-60
2022/07/19 06:36:47;;;;;;;;;;;;;;;20.91;40.73;101828.55;1699847;84;27524;-60
2022/07/19 06:39:15;;;;;;;;;;;;;;;21.00;41.16;101832.11;1699709;84;25790;-60
2022/07/19 06:41:42;;;;;;;;;;;;;;;21.07;41.40;101831.19;1699741;84;25808;-60
2022/07/19 06:44:11;;;;;;;;;;;;;;;21.16;41.59;101829.27;1699583;83;25885;-60
2022/07/19 06:46:40;;;;;;;;;;;;;;;21.23;41.98;101817.09;1695176;84;25634;-61
2022/07/19 06:49:06;;;;;;;;;;;;;;;21.30;42.17;101822.66;1692144;84;27492;-61
2022/07/19 06:51:32;;;;;;;;;;;;;;;21.37;42.15;101824.50;1692965;83;25959;-60
2022/07/19 06:53:59;;;;;;;;;;;;;;;21.42;39.97;101820.72;1698265;84;25758;-59
2022/07/19 06:56:25;;;;;;;;;;;;;;;21.50;40.03;101823.05;1698424;84;25785;-60
2022/07/19 06:58:52;;;;;;;;;;;;;;;21.59;40.00;101823.35;1698415;84;25772;-60
2022/07/19 07:01:19;;;;;;;;;;;;;;;21.69;40.18;101824.45;1699430;83;27564;-60
2022/07/19 07:03:45;;;;;;;;;;;;;;;21.79;39.79;101831.90;1699702;83;25947;-60
2022/07/19 07:06:12;;;;;;;;;;;;;;;21.88;40.19;101823.07;1700033;83;25807;-60
2022/07/19 07:08:38;;;;;;;;;;;;;;;21.99;40.02;101823.16;1699888;84;25977;-59
2022/07/19 07:11:05;;;;;;;;;;;;;;;22.10;39.55;101818.57;1699965;84;25786;-61
2022/07/19 07:13:31;;;;;;;;;;;;;;;22.20;38.48;101814.20;1700190;84;27398;-61
2022/07/19 07:16:00;;;;;;;;;;;;;;;22.34;39.21;101820.20;1702374;83;26369;-60
2022/07/19 07:18:27;;;;;;;;;;;;;;;22.49;38.89;101818.86;1699655;84;26485;-60
2022/07/19 07:20:53;;;;;;;;;;;;;;;22.65;38.36;101819.69;1699993;84;25866;-61
2022/07/19 07:23:22;;;;;;;;;;;;;;;22.74;37.96;101819.07;1699710;83;27277;-60
2022/07/19 07:25:49;;;;;;;;;;;;;;;22.85;37.57;101817.21;1699908;84;27533;-61
2022/07/19 07:28:15;;;;;;;;;;;;;;;23.02;37.05;101817.81;1699797;84;25521;-60
2022/07/19 07:30:41;;;;;;;;;;;;;;;23.14;37.95;101819.02;1699763;83;25788;-61
2022/07/19 07:33:08;;;;;;;;;;;;;;;23.27;37.09;101818.34;1699668;84;26483;-59
2022/07/19 07:35:35;;;;;;;;;;;;;;;23.35;36.44;101818.74;1699876;84;25707;-59
2022/07/19 07:38:01;;;;;;;;;;;;;;;23.40;35.34;101816.75;1700146;83;28261;-60
2022/07/19 07:40:28;;;;;;;;;;;;;;;23.46;35.88;101813.23;1699844;84;25625;-60
2022/07/19 07:42:54;;;;;;;;;;;;;;;23.55;36.02;101804.33;1699829;84;25750;-61
2022/07/19 07:45:21;;;;;;;;;;;;;;;23.67;35.90;101807.38;1699808;84;25795;-60
2022/07/19 07:47:48;;;;;;;;;;;;;;;23.74;34.88;101810.52;1699818;84;25730;-61
2022/07/19 07:50:14;;;;;;;;;;;;;;;23.82;35.74;101808.66;1699911;83;28110;-61
2022/07/19 07:52:41;;;;;;;;;;;;;;;23.91;35.33;101812.46;1699597;84;25758;-61
2022/07/19 07:55:10;;;;;;;;;;;;;;;23.99;34.98;101811.47;1698897;84;25791;-61
2022/07/19 07:57:37;;;;;;;;;;;;;;;24.08;34.33;101808.06;1693748;84;25986;-61
2022/07/19 08:00:06;;;;;;;;;;;;;;;24.13;34.05;101796.45;1695679;83;25797;-61
2022/07/19 08:02:42;;;;;;;;;;;;;;;24.17;33.73;101798.59;1699940;84;28231;-59
2022/07/19 08:05:10;;;;;;;;;;;;;;;24.22;33.78;101793.88;1700001;84;25865;-60
2022/07/19 08:07:37;;;;;;;;;;;;;;;24.29;34.03;101802.16;1699719;84;25848;-61
2022/07/19 08:10:06;;;;;;;;;;;;;;;24.34;33.38;101804.60;1700136;84;26141;-61
2022/07/19 08:12:33;;;;;;;;;;;;;;;24.35;33.03;101800.80;1699770;83;25728;-61
2022/07/19 08:15:00;;;;;;;;;;;;;;;24.44;33.39;101796.00;1700344;84;27466;-60
2022/07/19 08:17:27;;;;;;;;;;;;;;;24.52;33.21;101797.70;1699514;84;25763;-61
2022/07/19 08:19:55;;;;;;;;;;;;;;;24.77;33.59;101790.35;1699808;83;25672;-61
2022/07/19 08:22:22;;;;;;;;;;;;;;;24.90;32.49;101787.62;1699837;84;25809;-60
2022/07/19 08:24:48;;;;;;;;;;;;;;;24.99;33.04;101791.89;1706386;83;25754;-61
2022/07/19 08:27:15;;;;;;;;;;;;;;;25.12;33.13;101788.86;1707502;83;27979;-63
2022/07/19 08:29:42;;;;;;;;;;;;;;;25.27;33.21;101788.67;1707659;84;25701;-61
2022/07/19 08:32:08;;;;;;;;;;;;;;;25.40;33.09;101783.73;1707585;83;26671;-61
2022/07/19 08:34:35;;;;;;;;;;;;;;;25.52;32.23;101782.57;1707788;84;26149;-61
2022/07/19 08:37:03;;;;;;;;;;;;;;;25.65;32.89;101785.85;1704958;84;25725;-60
2022/07/19 08:39:30;;;;;;;;;;;;;;;25.82;32.38;101787.11;1703320;83;27402;-60
2022/07/19 08:41:57;;;;;;;;;;;;;;;25.92;32.44;101782.53;1702482;84;25649;-61
2022/07/19 08:44:24;;;;;;;;;;;;;;;26.02;32.05;101773.29;1702072;84;25731;-61
2022/07/19 08:46:50;;;;;;;;;;;;;;;26.14;32.08;101778.18;1701955;84;27966;-60
2022/07/19 08:49:17;;;;;;;;;;;;;;;26.23;32.47;101768.61;1702601;84;25808;-60
2022/07/19 08:51:45;;;;;;;;;;;;;;;26.35;31.19;101775.16;1702367;84;28291;-60
2022/07/19 08:54:11;;;;;;;;;;;;;;;26.47;31.17;101772.56;1670804;83;25644;-60
2022/07/19 08:59:23;;;;;;;;;;;;;;;26.66;31.08;101772.70;1700207;84;25888;-60
2022/07/19 09:01:50;;;;;;;;;;;;;;;26.56;30.60;101772.63;1706566;84;25727;-60
2022/07/19 09:04:22;;;;;;;;;;;;;;;26.57;30.25;101766.56;1706080;84;27420;-59
2022/07/19 09:06:54;;;;;;;;;;;;;;;26.59;30.31;101768.58;1702270;84;25798;-60
2022/07/19 09:09:27;;;;;;;;;;;;;;;26.64;30.37;101754.12;1698421;84;25716;-60
2022/07/19 09:11:55;;;;;;;;;;;;;;;26.65;29.68;101758.03;1702441;84;26697;-60
2022/07/19 09:14:30;;;;;;;;;;;;;;;26.76;29.99;101735.78;1705388;83;26125;-59
2022/07/19 09:17:03;;;;;;;;;;;;;;;27.05;30.68;101734.89;1707753;82;28528;-59
2022/07/19 09:19:32;;;;;;;;;;;;;;;27.30;30.00;101734.92;1707743;84;25498;-61
2022/07/19 09:22:03;;;;;;;;;;;;;;;27.52;30.16;101730.94;1706503;84;25745;-60
2022/07/19 09:24:33;;;;;;;;;;;;;;;27.70;29.80;101733.74;1701390;83;26994;-60
2022/07/19 09:27:15;;;;;;;;;;;;;;;28.03;29.20;101729.77;1694783;84;25810;-60
2022/07/19 09:29:47;;;;;;;;;;;;;;;28.07;28.77;101725.52;1694463;84;27491;-60
2022/07/19 09:32:19;;;;;;;;;;;;;;;27.90;29.30;101734.08;1676243;84;25798;-60
2022/07/19 09:34:55;;;;;;;;;;;;;;;27.97;29.52;101732.08;1699916;84;25721;-60
2022/07/19 09:37:29;;;;;;;;;;;;;;;28.35;29.49;101718.58;1677819;84;25802;-60
2022/07/19 09:40:07;;;;;;;;;;;;;;;28.79;27.61;101723.12;1699437;84;25770;-60
2022/07/19 09:42:37;;;;;;;;;;;;;;;29.14;27.11;101719.59;1679853;84;27633;-60
2022/07/19 09:45:09;;;;;;;;;;;;;;;29.50;27.54;101724.11;1699898;84;26140;-60
2022/07/19 09:47:38;;;;;;;;;;;;;;;29.93;27.59;101722.63;1671688;85;25817;-60
2022/07/19 09:50:11;;;;;;;;;;;;;;;30.36;25.26;101715.76;1671771;85;26971;-60
2022/07/19 09:52:39;;;;;;;;;;;;;;;30.64;26.21;101709.94;1671218;85;25707;-59
2022/07/19 09:55:08;;;;;;;;;;;;;;;31.06;25.44;101703.19;1676896;84;27610;-59
2022/07/19 09:57:36;;;;;;;;;;;;;;;31.34;25.88;101708.37;1694928;84;25718;-60
2022/07/19 10:00:06;;;;;;;;;;;;;;;31.28;25.28;101703.83;1695982;84;25495;-60
2022/07/19 10:02:35;;;;;;;;;;;;;;;31.33;25.68;101701.98;1699711;84;25805;-60
2022/07/19 10:05:04;;;;;;;;;;;;;;;31.15;24.51;101700.32;1700077;84;25742;-61
2022/07/19 10:07:34;;;;;;;;;;;;;;;31.48;24.80;101697.21;1699954;84;28094;-61
2022/07/19 10:10:16;;;;;;;;;;;;;;;31.77;24.37;101698.50;1699757;84;26032;-60
2022/07/19 10:12:44;;;;;;;;;;;;;;;31.88;23.85;101694.44;1700016;84;25773;-60
2022/07/19 10:15:13;;;;;;;;;;;;;;;31.80;23.68;101697.13;1700132;83;25767;-60
2022/07/19 10:17:44;;;;;;;;;;;;;;;31.94;23.49;101690.08;1700040;84;25804;-61
2022/07/19 10:20:11;;;;;;;;;;;;;;;31.64;23.67;101691.87;1700498;83;27459;-61
2022/07/19 10:22:39;;;;;;;;;;;;;;;31.92;23.99;101690.05;1679529;84;25783;-60
2022/07/19 10:25:12;;;;;;;;;;;;;;;32.64;22.84;101683.95;1699795;84;25532;-61
2022/07/19 10:27:47;;;;;;;;;;;;;;;33.29;21.92;101678.39;1700009;84;26532;-60
2022/07/19 10:30:17;;;;;;;;;;;;;;;34.14;21.94;101678.03;1700086;83;25759;-61
2022/07/19 10:32:45;;;;;;;;;;;;;;;34.76;21.22;101673.45;1699555;84;27469;-59
2022/07/19 10:35:28;;;;;;;;;;;;;;;35.19;19.74;101668.97;1700040;84;25740;-60
2022/07/19 10:38:04;;;;;;;;;;;;;;;35.77;20.76;101664.95;1700033;84;25703;-60
2022/07/19 10:40:47;;;;;;;;;;;;;;;36.25;18.53;101667.26;1696206;84;25849;-60
2022/07/19 10:43:15;;;;;;;;;;;;;;;36.53;18.76;101657.05;1691878;84;25814;-60
2022/07/19 10:45:45;;;;;;;;;;;;;;;37.00;18.77;101653.31;1695060;84;27554;-60
2022/07/19 10:48:14;;;;;;;;;;;;;;;37.34;18.20;101654.63;1692252;84;25726;-59
2022/07/19 10:50:47;;;;;;;;;;;;;;;37.68;18.72;101650.92;1692343;84;25709;-60
2022/07/19 10:53:44;;;;;;;;;;;;;;;37.86;16.83;101654.09;1692079;84;25815;-60
2022/07/19 10:56:15;;;;;;;;;;;;;;;37.69;17.70;101654.00;1694990;84;25766;-60
2022/07/19 10:58:57;;;;;;;;;;;;;;;38.07;16.92;101642.01;1691460;84;27489;-60
2022/07/19 11:01:27;;;;;;;;;;;;;;;37.91;15.93;101651.20;1695862;84;25824;-60
2022/07/19 11:03:58;;;;;;;;;;;;;;;37.56;16.59;101635.91;1693663;84;25754;-60
2022/07/19 11:06:27;;;;;;;;;;;;;;;37.97;16.66;101640.16;1693185;84;25924;-61
2022/07/19 11:08:56;;;;;;;;;;;;;;;37.98;16.38;101636.80;1695286;84;25805;-60
2022/07/19 11:11:28;;;;;;;;;;;;;;;38.23;16.10;101637.01;1691713;84;46463;-60
2022/07/19 11:13:59;;;;;;;;;;;;;;;38.71;16.93;101632.33;1706429;83;25794;-61
2022/07/19 11:16:28;;;;;;;;;;;;;;;39.42;16.86;101621.78;1699821;83;25818;-62
2022/07/19 11:19:08;;;;;;;;;;;;;;;40.01;15.62;101616.86;1699819;84;25776;-61
2022/07/19 11:21:37;;;;;;;;;;;;;;;40.42;15.11;101623.53;1699814;84;25734;-61
2022/07/19 11:24:05;;;;;;;;;;;;;;;40.76;15.00;101616.48;1700785;83;27596;-60
2022/07/19 11:26:37;;;;;;;;;;;;;;;40.48;15.64;101612.38;1707648;84;25837;-61
2022/07/19 11:29:03;;;;;;;;;;;;;;;40.71;15.13;101615.78;1707649;83;25748;-61
2022/07/19 11:31:30;;;;;;;;;;;;;;;40.32;14.70;101611.95;1707566;84;25808;-61
2022/07/19 11:33:57;;;;;;;;;;;;;;;39.72;14.10;101611.02;1707862;84;25459;-61
2022/07/19 11:36:26;;;;;;;;;;;;;;;39.43;15.31;101611.34;1707845;84;27631;-60
2022/07/19 11:38:55;;;;;;;;;;;;;;;39.90;15.08;101605.01;1707715;84;25861;-61
2022/07/19 11:41:24;;;;;;;;;;;;;;;40.45;14.69;101604.58;1707441;84;26347;-61
2022/07/19 11:43:56;;;;;;;;;;;;;;;40.96;13.52;101610.05;1707707;84;25820;-62
2022/07/19 11:46:25;;;;;;;;;;;;;;;40.91;13.28;101597.51;1702430;84;25422;-61
2022/07/19 11:49:00;;;;;;;;;;;;;;;39.79;13.75;101595.11;1697464;84;27323;-61
2022/07/19 11:51:27;;;;;;;;;;;;;;;39.65;14.33;101590.06;1697347;83;25901;-61
2022/07/19 11:53:56;;;;;;;;;;;;;;;40.40;14.80;101587.78;1697651;84;25757;-61
2022/07/19 11:56:26;;;;;;;;;;;;;;;41.10;13.53;101585.99;1705033;84;25787;-62
2022/07/19 11:58:55;;;;;;;;;;;;;;;40.79;13.47;101587.66;1707532;84;25758;-61
2022/07/19 12:01:25;;;;;;;;;;;;;;;40.69;13.92;101580.88;1700874;83;27490;-61
2022/07/19 12:04:00;;;;;;;;;;;;;;;40.83;14.15;101577.40;1696579;84;25753;-61
2022/07/19 12:06:37;;;;;;;;;;;;;;;40.90;13.72;101576.09;1697683;83;25734;-60
2022/07/19 12:09:10;;;;;;;;;;;;;;;41.58;13.70;101580.10;1697731;84;25814;-60
2022/07/19 12:11:49;;;;;;;;;;;;;;;42.14;13.42;101578.91;1697951;83;25752;-62
2022/07/19 12:14:31;;;;;;;;;;;;;;;42.05;12.84;101580.34;1697935;83;27725;-61
2022/07/19 12:17:17;;;;;;;;;;;;;;;41.64;12.85;101575.13;1698036;84;25764;-61
2022/07/19 12:19:47;;;;;;;;;;;;;;;41.36;13.48;101564.92;1696603;84;25733;-60
2022/07/19 12:22:27;;;;;;;;;;;;;;;41.73;13.49;101571.73;1697941;83;25705;-61
2022/07/19 12:24:54;;;;;;;;;;;;;;;42.23;13.14;101558.54;1694683;83;26111;-61
2022/07/19 12:27:20;;;;;;;;;;;;;;;41.78;13.03;101572.98;1687006;85;27676;-61
2022/07/19 12:29:49;;;;;;;;;;;;;;;40.91;13.43;101556.60;1687391;84;26462;-61
2022/07/19 12:32:28;;;;;;;;;;;;;;;40.28;14.01;101553.13;1687373;85;25491;-61
2022/07/19 12:35:13;;;;;;;;;;;;;;;39.76;14.82;101553.52;1692218;84;26721;-61
2022/07/19 12:37:42;;;;;;;;;;;;;;;39.14;14.89;101553.36;1695970;83;25751;-61
2022/07/19 12:40:12;;;;;;;;;;;;;;;37.84;16.01;101563.67;1700774;83;27445;-61
2022/07/19 12:42:44;;;;;;;;;;;;;;;37.09;17.01;101556.19;1710389;83;25805;-61
2022/07/19 12:45:14;;;;;;;;;;;;;;;36.53;17.29;101551.38;1705251;83;25727;-60
2022/07/19 12:47:41;;;;;;;;;;;;;;;36.42;17.40;101552.59;1700803;83;25797;-61
2022/07/19 12:50:11;;;;;;;;;;;;;;;37.53;16.78;101549.50;1710812;83;25721;-61
2022/07/19 12:52:38;;;;;;;;;;;;;;;38.67;16.36;101542.14;1704746;83;27520;-61
2022/07/19 12:55:07;;;;;;;;;;;;;;;39.78;15.45;101541.94;1702560;82;25757;-61